Time;durP1;ratioP1;P1;durP2;ratioP2;P2;SDS_P1;SDS_P2;PMS_P1;PMS_P2;Temp;Humidity;BMP_temperature;BMP_pressure;BME280_temperature;BME280_humidity;BME280_pressure;Samples;Min_cycle;Max_cycle;Signal;HPM_P1;HPM_P2
2021/12/07 00:01:28;;;;;;;19.92;13.05;;;2.50;99.90;;;;;;4749658;28;10000471;-72
2021/12/07 00:03:54;;;;;;;18.23;12.82;;;2.50;99.90;;;;;;5097918;28;20024;-72
2021/12/07 00:06:20;;;;;;;19.85;12.82;;;2.50;99.90;;;;;;5089099;28;20679;-73
2021/12/07 00:08:49;;;;;;;20.35;12.88;;;2.50;99.90;;;;;;5091107;28;20556;-72
2021/12/07 00:11:15;;;;;;;17.88;12.35;;;2.50;99.90;;;;;;5099413;28;20471;-73
2021/12/07 00:13:42;;;;;;;17.92;12.45;;;2.50;99.90;;;;;;5091113;28;20016;-72
2021/12/07 00:16:10;;;;;;;15.88;11.18;;;2.50;99.90;;;;;;5096314;28;20085;-72
2021/12/07 00:18:37;;;;;;;18.38;12.00;;;2.50;99.90;;;;;;5095186;28;20032;-72
2021/12/07 00:21:05;;;;;;;16.48;11.57;;;2.50;99.90;;;;;;5099598;28;20028;-72
2021/12/07 00:23:32;;;;;;;16.63;11.60;;;2.50;99.90;;;;;;5094501;28;20115;-73
2021/12/07 00:25:58;;;;;;;15.65;11.27;;;2.50;99.90;;;;;;5101719;28;20027;-72
2021/12/07 00:28:24;;;;;;;15.55;11.18;;;2.50;99.90;;;;;;5095882;28;20028;-72
2021/12/07 00:30:51;;;;;;;15.88;11.20;;;2.50;99.90;;;;;;5098857;28;20411;-72
2021/12/07 00:35:50;;;;;;;17.23;11.00;;;2.50;99.90;;;;;;5104803;28;20031;-72
2021/12/07 00:38:23;;;;;;;16.25;11.30;;;2.50;99.90;;;;;;5091919;28;20023;-72
2021/12/07 00:40:49;;;;;;;16.85;10.88;;;2.50;99.90;;;;;;5099966;28;20047;-72
2021/12/07 00:43:15;;;;;;;16.48;10.57;;;2.50;99.90;;;;;;5096224;28;20032;-72
2021/12/07 00:45:46;;;;;;;15.65;10.35;;;2.50;99.90;;;;;;5095270;28;20020;-72
2021/12/07 00:48:15;;;;;;;15.00;10.30;;;2.50;99.90;;;;;;5093736;28;20078;-72
2021/12/07 00:50:44;;;;;;;15.43;10.73;;;2.50;99.90;;;;;;5093457;28;20111;-72
2021/12/07 00:53:11;;;;;;;14.63;10.57;;;2.50;99.90;;;;;;5102024;28;20073;-72
2021/12/07 00:55:40;;;;;;;15.80;10.65;;;2.50;99.90;;;;;;5102550;28;20367;-72
2021/12/07 00:58:16;;;;;;;15.63;10.63;;;2.60;99.90;;;;;;5100174;28;20031;-72
2021/12/07 01:00:43;;;;;;;14.80;9.63;;;2.50;99.90;;;;;;5099377;28;20038;-72
2021/12/07 01:03:09;;;;;;;14.13;10.15;;;2.60;99.90;;;;;;5103830;28;20027;-72
2021/12/07 01:05:36;;;;;;;13.93;9.35;;;2.50;99.90;;;;;;5104322;28;20020;-72
2021/12/07 01:26:55;;;;;;;15.07;10.02;;;2.40;99.90;;;;;;5105196;28;20066;-71
2021/12/07 01:29:24;;;;;;;13.95;9.85;;;2.30;99.90;;;;;;5092834;28;20032;-71
2021/12/07 01:34:50;;;;;;;14.02;9.85;;;2.20;99.90;;;;;;5102501;28;20516;-72
2021/12/07 02:00:54;;;;;;;15.88;11.52;;;1.90;99.90;;;;;;5096451;28;20512;-72
2021/12/07 02:03:20;;;;;;;17.48;11.07;;;1.90;99.90;;;;;;5099343;28;20031;-73
2021/12/07 02:05:46;;;;;;;17.75;11.65;;;1.90;99.90;;;;;;5103867;28;20020;-73
2021/12/07 02:08:12;;;;;;;17.85;11.57;;;1.90;99.90;;;;;;5095805;28;20242;-72
2021/12/07 02:10:38;;;;;;;17.83;11.90;;;1.80;99.90;;;;;;5098477;28;20776;-72
2021/12/07 02:13:18;;;;;;;15.48;10.88;;;1.80;99.90;;;;;;5094920;28;20028;-73
2021/12/07 02:15:43;;;;;;;15.65;11.35;;;1.80;99.90;;;;;;5101073;28;20088;-73
2021/12/07 02:18:09;;;;;;;19.70;11.65;;;1.80;99.90;;;;;;5102697;28;20216;-72
2021/12/07 02:20:35;;;;;;;20.30;11.98;;;1.80;99.90;;;;;;5102963;28;20484;-72
2021/12/07 02:23:00;;;;;;;17.08;11.88;;;1.80;99.90;;;;;;5101813;28;20043;-73
2021/12/07 02:25:28;;;;;;;19.38;12.70;;;1.80;99.90;;;;;;5102507;27;20028;-73
2021/12/07 02:27:54;;;;;;;18.75;11.55;;;1.80;99.90;;;;;;5107984;28;20055;-72
2021/12/07 02:30:22;;;;;;;17.20;12.00;;;1.80;99.90;;;;;;5096433;28;20071;-72
2021/12/07 02:32:51;;;;;;;15.07;11.45;;;1.80;99.90;;;;;;5097200;27;20066;-73
2021/12/07 02:35:24;;;;;;;16.25;11.18;;;1.80;99.90;;;;;;5104193;28;20097;-73
2021/12/07 02:37:50;;;;;;;12.10;8.13;;;1.80;99.90;;;;;;5104479;27;20028;-72
2021/12/07 02:40:15;;;;;;;16.15;10.88;;;1.90;99.90;;;;;;5105537;27;20032;-73
2021/12/07 02:42:41;;;;;;;16.63;10.93;;;1.80;99.90;;;;;;5103960;27;20012;-73
2021/12/07 02:45:07;;;;;;;13.45;10.15;;;1.90;99.90;;;;;;5101242;27;20111;-73
2021/12/07 02:47:37;;;;;;;14.95;9.73;;;1.90;99.90;;;;;;5097178;28;20287;-73
2021/12/07 02:50:07;;;;;;;17.00;10.80;;;1.90;99.90;;;;;;5102056;27;20522;-72
2021/12/07 02:52:32;;;;;;;15.02;10.55;;;1.90;99.90;;;;;;5094696;27;20068;-73
2021/12/07 02:54:58;;;;;;;15.68;10.18;;;1.90;99.90;;;;;;5102329;28;20020;-73
2021/12/07 02:57:24;;;;;;;14.02;9.75;;;1.90;99.90;;;;;;5099485;27;20039;-72
2021/12/07 03:00:16;;;;;;;13.90;9.43;;;1.90;99.90;;;;;;5102560;28;20275;-73
2021/12/07 03:02:44;;;;;;;14.55;10.05;;;1.90;99.90;;;;;;5096904;27;20052;-72
2021/12/07 03:27:13;;;;;;;14.98;10.13;;;2.00;99.90;;;;;;5103178;28;20545;-72
2021/12/07 03:29:39;;;;;;;16.50;10.50;;;2.00;99.90;;;;;;5099333;27;20031;-73
2021/12/07 03:32:05;;;;;;;19.15;10.73;;;2.00;99.90;;;;;;5102923;28;20209;-72
2021/12/07 03:34:30;;;;;;;14.25;9.77;;;1.90;99.90;;;;;;5101563;28;20031;-73
2021/12/07 03:36:56;;;;;;;12.85;9.45;;;1.90;99.90;;;;;;5106422;28;20028;-72
2021/12/07 03:39:22;;;;;;;16.60;9.55;;;1.90;99.90;;;;;;5105193;28;20032;-72
2021/12/07 03:41:47;;;;;;;13.65;9.35;;;2.00;99.90;;;;;;5098483;28;20031;-73
2021/12/07 03:44:13;;;;;;;14.13;9.25;;;1.90;99.90;;;;;;5093465;28;20028;-73
2021/12/07 03:46:38;;;;;;;15.32;9.90;;;1.90;99.90;;;;;;5097017;28;20023;-74
2021/12/07 03:49:04;;;;;;;12.40;9.40;;;1.90;99.90;;;;;;5099081;28;20036;-73
2021/12/07 03:51:30;;;;;;;13.07;9.57;;;2.00;99.90;;;;;;5094465;27;20019;-72
2021/12/07 03:53:56;;;;;;;12.73;9.18;;;2.00;99.90;;;;;;5104413;28;20385;-73
2021/12/07 03:56:21;;;;;;;12.50;9.10;;;2.00;99.90;;;;;;5096978;28;20470;-73
2021/12/07 03:58:47;;;;;;;13.57;9.43;;;2.00;99.90;;;;;;5099995;28;20122;-73
2021/12/07 04:01:13;;;;;;;13.55;9.10;;;2.00;99.90;;;;;;5100569;28;20062;-73
2021/12/07 04:03:41;;;;;;;11.93;8.52;;;2.00;99.90;;;;;;5106779;28;20141;-73
2021/12/07 04:06:07;;;;;;;12.30;8.73;;;2.00;99.90;;;;;;5103899;27;20031;-73
2021/12/07 04:08:38;;;;;;;12.73;8.93;;;2.00;99.90;;;;;;5104485;28;20023;-73
2021/12/07 04:11:05;;;;;;;12.27;8.95;;;2.00;99.90;;;;;;5103210;28;20035;-73
2021/12/07 04:13:30;;;;;;;14.00;9.13;;;2.00;99.90;;;;;;5097615;28;20447;-73
2021/12/07 04:15:57;;;;;;;12.38;9.15;;;2.00;99.90;;;;;;5101204;28;20035;-73
2021/12/07 04:18:23;;;;;;;15.60;9.10;;;2.00;99.90;;;;;;5102606;28;20038;-73
2021/12/07 04:20:49;;;;;;;12.68;8.93;;;2.00;99.90;;;;;;5099620;28;20076;-73
2021/12/07 04:23:14;;;;;;;11.48;8.25;;;2.00;99.90;;;;;;5097302;28;20106;-73
2021/12/07 04:25:40;;;;;;;11.13;8.00;;;2.00;99.90;;;;;;5105577;28;20073;-73
2021/12/07 04:28:06;;;;;;;10.68;8.20;;;2.00;99.90;;;;;;5099544;28;20137;-73
2021/12/07 04:30:35;;;;;;;9.70;7.63;;;2.00;99.90;;;;;;5101908;27;20062;-73
2021/12/07 04:33:04;;;;;;;10.48;7.72;;;2.00;99.90;;;;;;5095351;28;20067;-73
2021/12/07 04:35:30;;;;;;;11.27;7.97;;;2.10;99.90;;;;;;5093268;27;20031;-73
2021/12/07 04:37:57;;;;;;;12.23;8.88;;;2.10;99.90;;;;;;5103803;27;20020;-73
2021/12/07 04:40:25;;;;;;;11.35;8.48;;;2.10;99.90;;;;;;5094335;27;20434;-73
2021/12/07 04:42:52;;;;;;;10.77;7.80;;;2.10;99.90;;;;;;5101230;27;20032;-73
2021/12/07 04:48:37;;;;;;;10.88;7.97;;;2.10;99.90;;;;;;5027089;28;20030;-73
2021/12/07 04:58:57;;;;;;;10.52;6.28;;;2.10;99.90;;;;;;5091950;28;20562;-73
2021/12/07 05:01:25;;;;;;;8.80;6.75;;;2.10;99.90;;;;;;5097699;28;20035;-73
2021/12/07 05:03:53;;;;;;;10.55;6.53;;;2.10;99.90;;;;;;5097710;28;20739;-73
2021/12/07 05:06:23;;;;;;;8.57;6.57;;;2.20;99.90;;;;;;5100102;28;20019;-73
2021/12/07 05:08:55;;;;;;;9.45;6.55;;;2.20;99.90;;;;;;5111132;28;20016;-73
2021/12/07 05:16:49;;;;;;;8.07;6.63;;;2.30;99.90;;;;;;5106364;27;20030;-73
2021/12/07 05:38:32;;;;;;;10.23;7.50;;;2.10;99.90;;;;;;5103135;27;20093;-74
2021/12/07 05:40:58;;;;;;;10.02;7.30;;;2.10;99.90;;;;;;5095953;27;20494;-73
2021/12/07 05:43:24;;;;;;;11.10;7.72;;;2.10;99.90;;;;;;5098789;27;20474;-74
2021/12/07 05:45:49;;;;;;;10.63;7.30;;;2.10;99.90;;;;;;5094514;27;20080;-74
2021/12/07 05:48:15;;;;;;;9.55;7.18;;;2.10;99.90;;;;;;5102052;27;20471;-73
2021/12/07 05:50:42;;;;;;;11.93;8.48;;;2.10;99.90;;;;;;5104042;27;20029;-73
2021/12/07 05:53:09;;;;;;;16.63;10.70;;;2.10;99.90;;;;;;5111003;27;20088;-73
2021/12/07 05:55:35;;;;;;;13.50;9.48;;;2.10;99.90;;;;;;5110053;28;20062;-74
2021/12/07 05:58:02;;;;;;;12.95;9.40;;;2.00;99.90;;;;;;5095421;28;20061;-73
2021/12/07 06:00:39;;;;;;;16.08;12.10;;;2.00;99.90;;;;;;4740090;28;10003000;-73
2021/12/07 06:03:07;;;;;;;16.50;11.10;;;2.00;99.90;;;;;;5109527;27;20517;-74
2021/12/07 06:05:34;;;;;;;16.67;11.68;;;2.00;99.90;;;;;;4405432;27;10000699;-74
2021/12/07 06:08:00;;;;;;;20.65;12.93;;;2.00;99.90;;;;;;5110041;27;20563;-74
2021/12/07 06:10:26;;;;;;;22.77;14.32;;;2.00;99.90;;;;;;5112724;27;20015;-73
2021/12/07 06:12:53;;;;;;;20.02;13.90;;;2.00;99.90;;;;;;5111757;27;20606;-73
2021/12/07 06:15:21;;;;;;;31.88;20.27;;;2.00;99.90;;;;;;5106015;27;20030;-73
2021/12/07 06:17:48;;;;;;;23.33;15.50;;;2.00;99.90;;;;;;5113407;27;20527;-74
2021/12/07 06:20:14;;;;;;;19.55;13.65;;;2.00;99.90;;;;;;5113445;27;20036;-73
2021/12/07 06:22:40;;;;;;;18.02;12.60;;;2.00;99.90;;;;;;5104519;27;20145;-74
2021/12/07 06:25:06;;;;;;;16.77;11.40;;;2.00;99.90;;;;;;5110319;27;20424;-76
2021/12/07 06:27:33;;;;;;;17.33;10.98;;;2.10;99.90;;;;;;5118650;27;20027;-73
2021/12/07 06:29:58;;;;;;;13.35;9.23;;;2.00;99.90;;;;;;5124348;27;20076;-74
2021/12/07 06:32:25;;;;;;;13.50;9.73;;;2.00;99.90;;;;;;5112111;27;20051;-74
2021/12/07 06:34:51;;;;;;;16.00;9.02;;;2.10;99.90;;;;;;5104779;27;20032;-73
2021/12/07 06:37:18;;;;;;;15.15;10.77;;;2.00;99.90;;;;;;5109164;27;20110;-74
2021/12/07 06:39:44;;;;;;;11.60;8.98;;;2.00;99.90;;;;;;5104040;27;20388;-73
2021/12/07 06:42:10;;;;;;;12.23;9.10;;;2.00;99.90;;;;;;5098476;28;20038;-74
2021/12/07 06:44:36;;;;;;;16.42;11.15;;;2.00;99.90;;;;;;5105024;28;20023;-73
2021/12/07 06:47:02;;;;;;;22.95;14.90;;;2.00;99.90;;;;;;5098368;28;20482;-74
2021/12/07 06:49:27;;;;;;;12.73;9.60;;;2.00;99.90;;;;;;5099886;28;20465;-73
2021/12/07 06:51:53;;;;;;;10.73;8.73;;;1.90;99.90;;;;;;5095027;28;20092;-73
2021/12/07 06:54:19;;;;;;;10.73;8.38;;;2.00;99.90;;;;;;5098484;28;20144;-74
2021/12/07 06:56:45;;;;;;;11.68;8.90;;;2.00;99.90;;;;;;5098597;28;20114;-73
2021/12/07 06:59:11;;;;;;;10.55;8.73;;;2.00;99.90;;;;;;5100977;28;20131;-73
2021/12/07 07:01:37;;;;;;;9.52;7.95;;;2.00;99.90;;;;;;5103043;28;20031;-74
2021/12/07 07:04:03;;;;;;;10.60;8.45;;;2.00;99.90;;;;;;5100225;28;20048;-75
2021/12/07 07:06:29;;;;;;;9.85;8.10;;;2.00;99.90;;;;;;5102892;28;20116;-75
2021/12/07 07:08:55;;;;;;;9.70;8.15;;;1.90;99.90;;;;;;5107067;28;20020;-75
2021/12/07 07:11:21;;;;;;;11.32;8.98;;;2.00;99.90;;;;;;5101516;28;20046;-74
2021/12/07 07:13:48;;;;;;;9.63;8.02;;;2.00;99.90;;;;;;5104173;28;20039;-74
2021/12/07 07:16:14;;;;;;;12.93;8.30;;;2.00;99.90;;;;;;5102334;28;20105;-75
2021/12/07 07:18:40;;;;;;;11.38;8.95;;;2.00;99.90;;;;;;5096397;27;20266;-74
2021/12/07 07:21:07;;;;;;;11.52;9.57;;;2.00;99.90;;;;;;5100908;28;20039;-74
2021/12/07 07:23:33;;;;;;;14.23;9.70;;;2.00;99.90;;;;;;5105284;28;20080;-74
2021/12/07 07:25:59;;;;;;;14.25;10.23;;;2.00;99.90;;;;;;5104551;28;20032;-74
2021/12/07 07:28:29;;;;;;;13.80;11.27;;;2.00;99.90;;;;;;5106622;28;20079;-74
2021/12/07 07:30:55;;;;;;;13.48;10.55;;;2.00;99.90;;;;;;5092888;28;20448;-74
2021/12/07 07:33:21;;;;;;;14.30;9.80;;;2.00;99.90;;;;;;5082795;28;20075;-74
2021/12/07 07:35:47;;;;;;;12.50;9.90;;;2.00;99.90;;;;;;5083583;28;20476;-74
2021/12/07 07:38:14;;;;;;;14.30;10.40;;;2.00;99.90;;;;;;5097255;28;20024;-74
2021/12/07 07:40:40;;;;;;;16.85;12.63;;;2.10;99.90;;;;;;5080788;28;20028;-74
2021/12/07 07:43:05;;;;;;;15.07;11.63;;;2.10;99.90;;;;;;5089964;28;20020;-74
2021/12/07 07:45:31;;;;;;;17.70;13.05;;;2.10;99.90;;;;;;5078758;28;20488;-74
2021/12/07 07:47:57;;;;;;;14.35;11.15;;;2.10;99.90;;;;;;5103895;28;20039;-74
2021/12/07 07:50:23;;;;;;;14.43;11.10;;;2.10;99.90;;;;;;5083556;28;20107;-74
2021/12/07 07:52:49;;;;;;;11.82;9.80;;;2.10;99.90;;;;;;5075480;28;20382;-75
2021/12/07 07:55:16;;;;;;;14.07;10.68;;;2.10;99.90;;;;;;5080701;28;20043;-74
2021/12/07 07:57:42;;;;;;;16.58;12.13;;;2.10;99.90;;;;;;5089788;28;20044;-73
2021/12/07 08:00:11;;;;;;;17.45;12.70;;;2.10;99.90;;;;;;5085728;28;20031;-74
2021/12/07 08:02:37;;;;;;;19.33;15.02;;;2.00;99.90;;;;;;5078317;28;20040;-73
2021/12/07 08:05:03;;;;;;;23.65;17.60;;;2.10;99.90;;;;;;5071329;28;20063;-73
2021/12/07 08:07:29;;;;;;;16.52;11.88;;;2.10;99.90;;;;;;5085009;28;20028;-72
2021/12/07 08:09:54;;;;;;;14.65;11.77;;;2.10;99.90;;;;;;5086590;28;20036;-71
2021/12/07 08:12:20;;;;;;;12.52;10.73;;;2.10;99.90;;;;;;5097725;28;20052;-72
2021/12/07 08:14:46;;;;;;;13.52;10.55;;;2.00;99.90;;;;;;5089168;28;20032;-74
2021/12/07 08:17:12;;;;;;;15.02;11.10;;;2.10;99.90;;;;;;5073428;28;20492;-72
2021/12/07 08:19:38;;;;;;;15.85;11.57;;;2.00;99.90;;;;;;5103306;28;20030;-72
2021/12/07 08:22:04;;;;;;;18.95;14.98;;;2.00;99.90;;;;;;5090778;28;20044;-72
2021/12/07 08:24:29;;;;;;;17.65;14.35;;;2.10;99.90;;;;;;5075007;28;20051;-74
2021/12/07 08:26:55;;;;;;;15.35;13.35;;;2.10;99.90;;;;;;5075831;28;20689;-74
2021/12/07 08:29:21;;;;;;;19.80;13.75;;;2.10;99.90;;;;;;5073348;28;20040;-73
2021/12/07 08:31:46;;;;;;;26.52;20.88;;;2.20;99.90;;;;;;5079552;28;20044;-73
2021/12/07 08:34:12;;;;;;;21.65;17.73;;;2.20;99.90;;;;;;5096701;28;20066;-73
2021/12/07 08:36:38;;;;;;;17.85;13.93;;;2.20;99.90;;;;;;5106825;28;20489;-72
2021/12/07 08:39:06;;;;;;;22.17;16.65;;;2.20;99.90;;;;;;5101398;28;20069;-72
2021/12/07 08:41:32;;;;;;;32.30;21.20;;;2.20;99.90;;;;;;5093056;28;20115;-73
2021/12/07 08:43:57;;;;;;;24.45;17.70;;;2.20;99.90;;;;;;5093848;28;20111;-71
2021/12/07 08:46:23;;;;;;;17.60;12.98;;;2.20;99.90;;;;;;5099662;28;20031;-73
2021/12/07 08:48:49;;;;;;;12.57;10.35;;;2.20;99.90;;;;;;5106961;28;20469;-72
2021/12/07 08:51:15;;;;;;;14.70;10.77;;;2.20;99.90;;;;;;5108701;28;20023;-73
2021/12/07 08:53:49;;;;;;;14.93;11.65;;;2.20;99.90;;;;;;5101840;28;20043;-73
2021/12/07 09:01:43;;;;;;;12.07;10.05;;;2.40;99.90;;;;;;5095312;28;20032;-73
2021/12/07 09:04:10;;;;;;;11.48;9.25;;;;;;;;;;5097724;28;20024;-72
2021/12/07 09:06:38;;;;;;;10.73;8.43;;;;;;;;;;5094967;28;20035;-73
2021/12/07 09:09:04;;;;;;;11.40;8.30;;;;;;;;;;5092665;28;20027;-73
2021/12/07 09:11:30;;;;;;;9.95;8.30;;;;;;;;;;5093127;28;20028;-73
2021/12/07 09:13:56;;;;;;;10.00;7.97;;;;;;;;;;5094754;28;20036;-73
2021/12/07 09:16:22;;;;;;;12.68;10.48;;;;;;;;;;5093154;28;20481;-76
2021/12/07 09:18:49;;;;;;;11.02;9.30;;;;;;;;;;5107481;28;20028;-72
2021/12/07 09:21:16;;;;;;;14.07;9.80;;;;;;;;;;5097289;28;20032;-74
2021/12/07 09:23:42;;;;;;;15.00;11.77;;;;;;;;;;5102104;28;20020;-73
2021/12/07 09:26:09;;;;;;;12.48;9.50;;;;;;;;;;5097436;28;20508;-72
2021/12/07 09:28:36;;;;;;;13.23;10.48;;;;;;;;;;5100516;28;20107;-72
2021/12/07 09:31:02;;;;;;;11.27;9.43;;;;;;;;;;5094969;28;20039;-71
2021/12/07 09:33:30;;;;;;;13.70;10.25;;;;;;;;;;5084879;28;20058;-73
2021/12/07 09:35:56;;;;;;;11.38;9.20;;;;;;;;;;5080668;28;20116;-73
2021/12/07 09:38:23;;;;;;;16.45;12.45;;;;;;;;;;5082225;28;20501;-72
2021/12/07 09:40:50;;;;;;;19.38;14.15;;;;;;;;;;5080768;28;20242;-72
2021/12/07 09:43:16;;;;;;;15.95;12.85;;;;;;;;;;5072484;28;20025;-74
2021/12/07 09:45:43;;;;;;;13.25;10.68;;;;;;;;;;5074419;28;20063;-73
2021/12/07 09:48:10;;;;;;;8.23;6.80;;;;;;;;;;5080510;28;20024;-73
2021/12/07 09:50:38;;;;;;;9.27;7.45;;;;;;;;;;5086572;28;20021;-73
2021/12/07 09:53:07;;;;;;;9.07;6.90;;;;;;;;;;5087247;28;20059;-72
2021/12/07 09:55:33;;;;;;;8.73;6.82;;;;;;;;;;5071803;28;20029;-74
2021/12/07 09:57:59;;;;;;;8.75;6.30;;;;;;;;;;5076672;28;20036;-75
2021/12/07 10:00:25;;;;;;;8.57;6.63;;;;;;;;;;5085474;28;20700;-73
2021/12/07 10:02:53;;;;;;;7.88;6.35;;;3.20;99.90;;;;;;5080792;28;20037;-73
2021/12/07 10:05:19;;;;;;;8.30;6.45;;;3.20;99.90;;;;;;5074472;28;20058;-71
2021/12/07 10:07:47;;;;;;;8.38;6.78;;;3.30;99.90;;;;;;5080521;28;20024;-72
2021/12/07 10:10:22;;;;;;;8.15;6.68;;;3.30;99.90;;;;;;5084590;28;20028;-72
2021/12/07 10:12:48;;;;;;;10.88;6.90;;;3.40;99.90;;;;;;5072481;28;20028;-73
2021/12/07 10:15:15;;;;;;;9.88;7.43;;;3.40;99.90;;;;;;5079185;28;20032;-73
2021/12/07 10:17:42;;;;;;;14.45;9.65;;;3.50;99.90;;;;;;5076102;28;22333;-73
2021/12/07 10:20:33;;;;;;;11.95;8.43;;;3.50;99.90;;;;;;5090433;28;20036;-73
2021/12/07 10:23:24;;;;;;;20.83;14.43;;;3.50;99.90;;;;;;5071644;28;20078;-72
2021/12/07 10:25:55;;;;;;;18.92;13.52;;;3.60;99.90;;;;;;5065491;28;20036;-74
2021/12/07 10:28:23;;;;;;;21.55;15.63;;;3.60;99.90;;;;;;5071597;28;20496;-73
2021/12/07 10:30:50;;;;;;;27.52;17.45;;;3.60;99.90;;;;;;5079551;28;20028;-73
2021/12/07 10:33:37;;;;;;;25.00;16.98;;;3.60;99.90;;;;;;5080292;28;20102;-74
2021/12/07 10:36:12;;;;;;;23.00;15.88;;;3.70;99.90;;;;;;5074216;28;20031;-73
2021/12/07 10:38:39;;;;;;;30.42;19.98;;;3.80;99.90;;;;;;5081577;28;20028;-74
2021/12/07 10:41:08;;;;;;;27.60;17.67;;;3.80;99.90;;;;;;5082035;28;20036;-74
2021/12/07 10:43:42;;;;;;;19.73;11.18;;;3.70;99.90;;;;;;5077133;28;20028;-73
2021/12/07 10:46:25;;;;;;;16.05;9.75;;;3.70;99.90;;;;;;5073002;28;20036;-74
2021/12/07 10:49:06;;;;;;;15.65;9.18;;;3.70;99.90;;;;;;5080152;28;20016;-74
2021/12/07 10:51:31;;;;;;;20.08;13.25;;;3.80;99.90;;;;;;5082617;28;20044;-74
2021/12/07 10:53:57;;;;;;;17.90;12.48;;;;;;;;;;5065411;28;20043;-74
2021/12/07 10:56:35;;;;;;;15.43;9.48;;;3.80;99.90;;;;;;5078330;28;20391;-74
2021/12/07 10:59:07;;;;;;;25.35;14.25;;;3.80;99.90;;;;;;5086603;28;20024;-74
2021/12/07 11:01:38;;;;;;;28.02;17.13;;;3.80;99.90;;;;;;5077799;28;20028;-73
2021/12/07 11:04:27;;;;;;;21.27;13.90;;;3.80;99.90;;;;;;5069665;28;20032;-73
2021/12/07 11:07:32;;;;;;;20.70;12.63;;;3.80;99.90;;;;;;5069523;28;20104;-73
2021/12/07 11:10:21;;;;;;;21.15;15.07;;;3.80;99.90;;;;;;5066148;28;20039;-74
2021/12/07 11:12:58;;;;;;;22.50;15.20;;;3.80;99.90;;;;;;5081056;28;20032;-74
2021/12/07 11:15:27;;;;;;;20.88;12.50;;;3.90;99.90;;;;;;5083301;28;20020;-75
2021/12/07 11:18:02;;;;;;;22.85;17.05;;;3.90;99.90;;;;;;5072694;28;20482;-74
2021/12/07 11:20:30;;;;;;;19.67;13.10;;;3.90;99.90;;;;;;5084084;28;20020;-75
2021/12/07 11:23:10;;;;;;;22.80;13.73;;;4.00;99.90;;;;;;5069913;28;20024;-75
2021/12/07 11:25:53;;;;;;;23.25;13.05;;;4.00;99.90;;;;;;5068993;28;20025;-75
2021/12/07 11:31:18;;;;;;;18.85;11.85;;;4.10;99.90;;;;;;5074203;28;20065;-75
2021/12/07 11:33:45;;;;;;;24.45;11.38;;;4.10;99.90;;;;;;5093348;28;20458;-76
2021/12/07 11:36:22;;;;;;;22.67;11.77;;;4.00;99.90;;;;;;5093280;28;20473;-75
2021/12/07 11:38:48;;;;;;;23.08;13.00;;;4.00;99.90;;;;;;5093950;27;20037;-75
2021/12/07 11:41:20;;;;;;;21.42;12.40;;;4.00;99.90;;;;;;5092843;28;20114;-75
2021/12/07 11:44:15;;;;;;;21.80;11.13;;;4.00;99.90;;;;;;5094208;28;20047;-75
2021/12/07 11:46:48;;;;;;;19.05;11.63;;;4.00;99.90;;;;;;5098227;28;20066;-75
2021/12/07 11:49:20;;;;;;;23.95;12.30;;;4.00;99.90;;;;;;5093270;28;20244;-75
2021/12/07 11:51:48;;;;;;;21.33;10.77;;;4.10;99.90;;;;;;5083061;28;20016;-74
2021/12/07 11:54:16;;;;;;;18.75;9.60;;;4.10;99.90;;;;;;5085901;27;20027;-74
2021/12/07 11:56:44;;;;;;;13.88;8.60;;;4.10;99.90;;;;;;5089991;28;20031;-74
2021/12/07 11:59:12;;;;;;;18.73;9.40;;;4.10;99.90;;;;;;5085139;28;20027;-74
2021/12/07 12:01:38;;;;;;;20.73;9.82;;;4.10;99.90;;;;;;5095911;28;20040;-73
2021/12/07 12:04:04;;;;;;;17.30;9.82;;;4.10;99.90;;;;;;5091105;28;20650;-74
2021/12/07 12:06:31;;;;;;;14.10;8.30;;;4.20;99.90;;;;;;5096895;28;23063;-74
2021/12/07 12:08:57;;;;;;;15.70;8.55;;;4.20;99.90;;;;;;5092498;28;20028;-73
2021/12/07 12:11:42;;;;;;;14.65;8.27;;;4.20;99.90;;;;;;5087636;28;20715;-73
2021/12/07 12:14:36;;;;;;;17.83;7.38;;;4.20;99.90;;;;;;5095101;28;20048;-73
2021/12/07 12:17:17;;;;;;;14.07;7.80;;;4.20;99.90;;;;;;5098731;28;20115;-73
2021/12/07 12:20:21;;;;;;;15.63;8.38;;;4.20;99.90;;;;;;5089772;28;20085;-73
2021/12/07 12:22:54;;;;;;;17.45;8.85;;;4.30;99.90;;;;;;5072165;28;20024;-74
2021/12/07 12:25:22;;;;;;;14.80;8.73;;;4.30;99.90;;;;;;5089798;28;20120;-74
2021/12/07 12:27:50;;;;;;;17.65;8.27;;;4.40;99.90;;;;;;5089447;28;20036;-73
2021/12/07 12:30:37;;;;;;;17.10;8.23;;;4.50;99.90;;;;;;5094202;28;20019;-75
2021/12/07 12:33:21;;;;;;;15.18;8.35;;;4.50;99.90;;;;;;5086326;28;20035;-75
2021/12/07 12:35:52;;;;;;;20.55;10.38;;;4.70;99.90;;;;;;5081269;28;20024;-73
2021/12/07 12:38:21;;;;;;;14.40;8.70;;;4.70;99.90;;;;;;5075896;28;20054;-74
2021/12/07 12:41:14;;;;;;;15.43;8.32;;;4.80;99.90;;;;;;5082956;28;20556;-73
2021/12/07 12:43:58;;;;;;;18.55;8.98;;;4.80;99.90;;;;;;5073541;28;20099;-73
2021/12/07 12:46:28;;;;;;;14.68;7.93;;;4.90;99.90;;;;;;5072058;28;20497;-73
2021/12/07 12:48:57;;;;;;;13.32;7.70;;;5.00;99.90;;;;;;5073647;28;20377;-73
2021/12/07 12:51:26;;;;;;;13.88;7.93;;;5.10;99.90;;;;;;5081057;28;20062;-74
2021/12/07 12:53:53;;;;;;;15.93;8.52;;;5.10;99.90;;;;;;5082659;28;20096;-71
2021/12/07 12:56:25;;;;;;;15.07;7.90;;;5.10;99.90;;;;;;5078480;28;20402;-73
2021/12/07 12:58:55;;;;;;;13.55;8.30;;;5.00;99.90;;;;;;5077859;28;20028;-73
2021/12/07 13:01:30;;;;;;;15.95;8.30;;;4.90;99.90;;;;;;5087234;28;20028;-73
2021/12/07 13:04:04;;;;;;;14.50;8.27;;;4.90;99.90;;;;;;5075115;28;20378;-74
2021/12/07 13:06:33;;;;;;;17.85;9.45;;;4.80;99.90;;;;;;5080181;28;20028;-73
2021/12/07 13:09:05;;;;;;;18.88;9.65;;;4.80;99.90;;;;;;5081136;28;20066;-73
2021/12/07 13:11:44;;;;;;;20.73;10.20;;;4.90;99.90;;;;;;5077229;28;20029;-73
2021/12/07 13:14:21;;;;;;;17.10;9.52;;;4.90;99.90;;;;;;5081228;28;20028;-72
2021/12/07 13:16:53;;;;;;;18.40;8.50;;;4.90;99.90;;;;;;5080808;28;20734;-72
2021/12/07 13:19:20;;;;;;;19.45;9.35;;;4.90;99.90;;;;;;5073264;28;20107;-72
2021/12/07 13:21:48;;;;;;;20.92;10.55;;;4.90;99.90;;;;;;5079003;28;20291;-71
2021/12/07 13:24:31;;;;;;;21.95;11.55;;;5.00;99.90;;;;;;5084140;28;20024;-71
2021/12/07 13:26:57;;;;;;;22.08;11.50;;;5.00;99.90;;;;;;5079670;28;20490;-71
2021/12/07 13:29:24;;;;;;;25.00;12.05;;;5.00;99.90;;;;;;5077375;28;20032;-71
2021/12/07 13:31:54;;;;;;;24.38;11.73;;;4.90;99.90;;;;;;5080988;28;20039;-72
2021/12/07 13:34:32;;;;;;;18.27;10.75;;;4.90;99.90;;;;;;5102386;28;20496;-73
2021/12/07 13:37:06;;;;;;;24.13;12.63;;;4.90;99.90;;;;;;5098441;27;20345;-73
2021/12/07 13:39:56;;;;;;;21.23;12.18;;;4.90;99.90;;;;;;5095213;28;20035;-73
2021/12/07 13:42:25;;;;;;;22.73;12.98;;;4.90;99.90;;;;;;5103516;28;20054;-72
2021/12/07 13:45:03;;;;;;;30.08;15.48;;;4.90;99.90;;;;;;5110883;28;20503;-72
2021/12/07 13:47:37;;;;;;;18.00;10.00;;;4.80;99.90;;;;;;5098767;28;20027;-73
2021/12/07 13:50:05;;;;;;;22.25;10.43;;;4.70;99.90;;;;;;5097525;28;20023;-72
2021/12/07 13:52:35;;;;;;;18.83;10.10;;;4.60;99.90;;;;;;5100755;28;20456;-72
2021/12/07 13:55:05;;;;;;;19.33;10.13;;;4.60;99.90;;;;;;5108434;28;20036;-73
2021/12/07 13:57:35;;;;;;;16.92;9.27;;;4.60;99.90;;;;;;5098047;28;20049;-72
2021/12/07 14:00:25;;;;;;;15.38;8.45;;;4.40;99.90;;;;;;5103280;28;20577;-72
2021/12/07 14:02:55;;;;;;;18.17;8.57;;;4.40;99.90;;;;;;5096464;28;20044;-73
2021/12/07 14:05:36;;;;;;;16.98;9.45;;;4.30;99.90;;;;;;5103971;27;20024;-73
2021/12/07 14:08:05;;;;;;;19.30;9.73;;;4.30;99.90;;;;;;5105078;27;20393;-72
2021/12/07 14:10:37;;;;;;;16.65;9.38;;;4.20;99.90;;;;;;5099933;28;20027;-73
2021/12/07 14:13:04;;;;;;;24.05;10.32;;;4.10;99.90;;;;;;5104473;28;20081;-72
2021/12/07 14:15:41;;;;;;;17.15;9.70;;;4.00;99.90;;;;;;5100715;28;20082;-73
2021/12/07 14:18:09;;;;;;;15.02;9.40;;;4.00;99.90;;;;;;5100437;28;20027;-72
2021/12/07 14:20:49;;;;;;;16.08;11.07;;;3.90;99.90;;;;;;5100243;28;20060;-72
2021/12/07 14:23:29;;;;;;;22.60;11.10;;;3.90;99.90;;;;;;5096469;28;20065;-72
2021/12/07 14:26:00;;;;;;;18.38;10.80;;;3.80;99.90;;;;;;5113244;27;20119;-72
2021/12/07 14:28:39;;;;;;;19.60;11.55;;;3.80;99.90;;;;;;5104815;28;20385;-72
2021/12/07 14:31:09;;;;;;;24.45;13.13;;;3.80;99.90;;;;;;5103903;28;20031;-72
2021/12/07 14:33:42;;;;;;;19.27;12.35;;;3.80;99.90;;;;;;5097610;28;20107;-73
2021/12/07 14:36:09;;;;;;;19.60;11.90;;;3.80;99.90;;;;;;4745290;28;10000580;-71
2021/12/07 14:38:36;;;;;;;24.02;14.95;;;3.80;99.90;;;;;;5090612;27;20032;-71
2021/12/07 14:41:13;;;;;;;25.25;16.60;;;3.80;99.90;;;;;;5104093;27;20039;-72
2021/12/07 14:43:41;;;;;;;25.05;16.90;;;3.80;99.90;;;;;;5100968;28;20035;-73
2021/12/07 14:46:09;;;;;;;24.75;16.38;;;3.80;99.90;;;;;;5098677;28;20038;-77
2021/12/07 14:48:37;;;;;;;30.92;18.58;;;3.80;99.90;;;;;;5105594;27;20024;-75
2021/12/07 14:51:07;;;;;;;53.20;22.52;;;3.90;99.90;;;;;;5100247;28;20043;-74
2021/12/07 14:53:39;;;;;;;66.97;27.33;;;3.80;99.90;;;;;;5096146;28;20390;-77